Time;durP1;ratioP1;P1;durP2;ratioP2;P2;SDS_P1;SDS_P2;PMS_P1;PMS_P2;Temp;Humidity;BMP_temperature;BMP_pressure;BME280_temperature;BME280_humidity;BME280_pressure;Samples;Min_cycle;Max_cycle;Signal;HPM_P1;HPM_P2
2022/02/05 00:00:31;;;;;;;29.58;19.65;;;;;;;-1.25;56.61;101465.97;2106771;28;20634;-65
2022/02/05 00:01:47;;;;;;;29.55;18.55;;;;;;;-0.34;56.11;101597.19;2098056;28;20638;-66
2022/02/05 00:03:08;;;;;;;31.63;20.40;;;;;;;-0.38;56.39;101591.63;2102415;28;20219;-64
2022/02/05 00:04:12;;;;;;;32.00;20.00;;;;;;;-1.26;56.43;101445.34;2105993;28;20188;-66
2022/02/05 00:05:16;;;;;;;29.30;18.65;;;;;;;-0.37;55.87;101595.13;2105831;28;20706;-65
2022/02/05 00:06:21;;;;;;;29.02;18.45;;;;;;;-0.39;55.70;101591.94;2106828;28;20666;-65
2022/02/05 00:07:23;;;;;;;37.35;22.15;;;;;;;-0.42;56.19;101596.13;2106666;28;20183;-64
2022/02/05 00:11:20;;;;;;;41.60;22.75;;;;;;;-0.91;58.37;101558.16;2106742;28;20162;-65
2022/02/05 00:38:19;;;;;;;39.17;23.30;;;;;;;-0.89;59.00;101572.22;2106624;28;20193;-65
2022/02/05 00:40:59;;;;;;;37.13;24.10;;;;;;;-1.40;59.29;101509.28;2106563;28;20185;-65
2022/02/05 00:41:55;;;;;;;35.45;20.45;;;;;;;-0.75;58.44;101614.34;2100224;28;20268;-65
2022/02/05 00:42:55;;;;;;;33.90;21.58;;;;;;;-1.38;58.44;101492.28;2106587;28;20209;-65
2022/02/05 00:44:02;;;;;;;35.67;23.53;;;;;;;-0.72;58.71;101596.56;2106127;28;20177;-65
2022/02/05 00:45:07;;;;;;;33.63;22.17;;;;;;;-0.70;58.13;101597.03;2105883;28;20166;-65
2022/02/05 00:46:08;;;;;;;33.88;21.88;;;;;;;-0.70;58.55;101594.31;2105731;28;20287;-65
2022/02/05 00:47:08;;;;;;;37.63;22.83;;;;;;;-1.50;58.56;101485.19;2106411;28;20180;-65
2022/02/05 00:48:10;;;;;;;32.30;21.37;;;;;;;-0.69;58.12;101593.19;2106370;28;20184;-65
2022/02/05 00:49:12;;;;;;;31.13;21.00;;;;;;;-0.82;58.59;101569.75;2106329;28;20176;-65
2022/02/05 00:50:18;;;;;;;31.27;19.45;;;;;;;-0.67;58.97;101580.84;2106075;28;20194;-65
2022/02/05 00:52:26;;;;;;;36.83;21.85;;;;;;;-0.71;58.09;101574.47;2106380;28;20178;-65
2022/02/05 00:53:32;;;;;;;34.70;20.83;;;;;;;-1.15;58.44;101536.28;2106312;28;20218;-65
2022/02/05 00:54:32;;;;;;;25.35;16.48;;;;;;;-0.60;58.82;101588.47;2106120;28;20639;-65
2022/02/05 00:55:36;;;;;;;25.13;16.03;;;;;;;-1.44;59.22;101484.66;2105832;28;20567;-65
2022/02/05 00:58:02;;;;;;;27.45;14.82;;;;;;;-0.66;59.06;101593.31;2080572;28;20236;-65
2022/02/05 00:59:03;;;;;;;21.92;15.25;;;;;;;-0.68;59.22;101597.50;2102624;28;20213;-65
2022/02/05 01:00:04;;;;;;;21.40;13.33;;;;;;;-0.71;59.06;101598.19;2106186;28;20181;-65
2022/02/05 01:01:08;;;;;;;24.38;14.80;;;;;;;-0.70;58.87;101595.09;2105636;28;20261;-65
2022/02/05 01:02:09;;;;;;;21.25;12.63;;;;;;;-0.65;59.07;101594.13;2105368;28;20211;-65
2022/02/05 01:03:10;;;;;;;20.50;13.87;;;;;;;-0.73;58.87;101584.09;2113232;28;20187;-65
2022/02/05 01:04:11;;;;;;;16.97;11.90;;;;;;;-0.75;58.78;101587.13;2105715;28;20206;-65
2022/02/05 01:05:12;;;;;;;15.95;10.85;;;;;;;-0.61;58.97;101586.88;2104970;28;20185;-65
2022/02/05 01:06:13;;;;;;;16.38;11.15;;;;;;;-1.33;58.92;101480.44;2105705;28;20183;-65
2022/02/05 01:07:13;;;;;;;17.17;11.90;;;;;;;-0.73;58.99;101588.75;2105793;28;20173;-65
2022/02/05 01:08:16;;;;;;;16.13;10.43;;;;;;;-1.44;58.96;101481.94;2105135;28;20272;-65
2022/02/05 01:09:22;;;;;;;19.67;10.80;;;;;;;-0.80;59.03;101589.28;2105694;28;20185;-65
2022/02/05 01:10:26;;;;;;;21.25;12.20;;;;;;;-0.99;59.38;101558.25;2106367;28;20643;-65
2022/02/05 01:11:27;;;;;;;15.45;10.57;;;;;;;-0.78;59.11;101592.44;2105648;28;20182;-65
2022/02/05 01:12:30;;;;;;;13.00;8.30;;;;;;;-0.88;59.07;101579.25;2105935;28;20220;-65
2022/02/05 01:13:33;;;;;;;14.52;9.00;;;;;;;-0.78;59.09;101591.69;2105931;28;20183;-65
2022/02/05 01:14:43;;;;;;;17.88;11.80;;;;;;;-0.80;59.35;101589.28;2106152;28;20188;-65
2022/02/05 01:15:54;;;;;;;13.27;8.45;;;;;;;-0.76;59.44;101591.00;2105809;28;20180;-65
2022/02/05 01:17:06;;;;;;;18.42;12.25;;;;;;;-0.86;59.55;101596.84;2105924;28;20164;-65
2022/02/05 01:18:08;;;;;;;18.33;12.73;;;;;;;-0.80;58.68;101606.38;2105873;28;20187;-65
2022/02/05 01:19:19;;;;;;;13.50;8.75;;;;;;;-0.76;58.80;101590.22;2106130;28;20596;-65
2022/02/05 01:20:44;;;;;;;17.55;12.52;;;;;;;-1.57;59.08;101467.47;2106243;28;20672;-65
2022/02/05 01:21:48;;;;;;;20.65;11.75;;;;;;;-0.76;58.51;101593.72;2105375;28;20204;-65
2022/02/05 01:22:50;;;;;;;15.50;8.45;;;;;;;-0.77;58.85;101595.97;2106154;28;20531;-65
2022/02/05 01:24:00;;;;;;;19.63;12.48;;;;;;;-1.47;58.84;101491.53;2105708;28;20237;-65
2022/02/05 01:25:00;;;;;;;15.98;11.38;;;;;;;-1.63;58.45;101450.91;2105742;28;20168;-65
2022/02/05 01:26:13;;;;;;;12.13;8.80;;;;;;;-1.28;58.98;101514.78;2105607;28;20233;-65
2022/02/05 01:27:27;;;;;;;22.65;13.65;;;;;;;-0.87;58.56;101578.94;2106050;28;20265;-65
2022/02/05 01:28:31;;;;;;;12.00;8.95;;;;;;;-0.78;58.84;101588.94;2105500;28;20678;-65
2022/02/05 01:30:06;;;;;;;14.15;8.40;;;;;;;-1.36;59.03;101491.97;2106200;28;20179;-65
2022/02/05 01:31:07;;;;;;;17.13;11.70;;;;;;;-0.78;59.01;101580.78;2097666;28;20189;-65
2022/02/05 01:32:13;;;;;;;18.03;11.20;;;;;;;-0.78;58.93;101580.78;2097186;28;20185;-65
2022/02/05 01:34:30;;;;;;;17.13;11.80;;;;;;;-1.48;58.73;101470.16;2097419;28;20614;-65
2022/02/05 01:51:21;;;;;;;16.40;9.73;;;;;;;-1.33;57.29;101495.94;2105793;28;20563;-65
2022/02/05 01:52:31;;;;;;;17.05;11.65;;;;;;;-0.87;57.41;101561.81;2105438;28;20216;-65
2022/02/05 01:53:48;;;;;;;18.60;11.65;;;;;;;-0.82;57.29;101571.69;2105902;28;20545;-65
2022/02/05 01:56:14;;;;;;;20.98;13.30;;;;;;;-0.86;57.13;101564.19;2105939;28;20183;-65
2022/02/05 01:57:27;;;;;;;18.42;13.05;;;;;;;-0.88;56.71;101573.81;2105703;28;20173;-65
2022/02/05 02:05:03;;;;;;;17.85;11.77;;;;;;;-1.75;56.68;101473.34;2105490;28;20167;-65
2022/02/05 02:09:39;;;;;;;18.70;12.63;;;;;;;-1.23;56.58;101572.47;2106038;28;20168;-65
2022/02/05 02:11:35;;;;;;;17.90;12.52;;;;;;;-1.41;56.71;101562.84;2105257;28;20564;-65
2022/02/05 02:12:41;;;;;;;21.23;12.52;;;;;;;-2.25;57.25;101466.28;2105330;28;20172;-65
2022/02/05 02:14:55;;;;;;;20.92;13.05;;;;;;;-1.49;57.12;101571.06;2109458;28;20213;-65
2022/02/05 02:23:10;;;;;;;24.27;16.73;;;;;;;-2.52;56.48;101429.50;2106139;28;20728;-65
2022/02/05 02:24:44;;;;;;;27.75;16.73;;;;;;;-1.89;56.96;101535.31;2104443;28;20262;-65
2022/02/05 02:25:51;;;;;;;27.10;16.98;;;;;;;-1.73;56.49;101563.50;2104288;28;20607;-65
2022/02/05 02:28:09;;;;;;;28.45;17.05;;;;;;;-1.76;56.75;101569.59;2106057;28;20167;-65
2022/02/05 02:29:18;;;;;;;25.05;16.73;;;;;;;-2.03;56.91;101533.91;2105550;28;20167;-65
2022/02/05 02:30:24;;;;;;;24.38;16.80;;;;;;;-1.86;57.24;101574.59;2106005;28;20163;-65
2022/02/05 02:31:29;;;;;;;24.92;15.95;;;;;;;-2.21;57.05;101508.75;2104886;28;20162;-64
2022/02/05 02:32:31;;;;;;;22.60;14.18;;;;;;;-1.88;58.14;101566.78;2105980;28;20167;-65
2022/02/05 02:33:37;;;;;;;24.33;15.77;;;;;;;-2.69;58.00;101448.56;2105257;28;20563;-65
2022/02/05 02:34:43;;;;;;;23.95;15.32;;;;;;;-1.89;57.63;101557.03;2105872;28;20167;-64
2022/02/05 02:35:47;;;;;;;26.08;16.23;;;;;;;-2.81;57.58;101440.31;2105496;28;20711;-65
2022/02/05 02:37:00;;;;;;;24.42;16.08;;;;;;;-2.31;57.29;101498.25;2105851;28;20575;-65
2022/02/05 02:38:08;;;;;;;21.65;15.00;;;;;;;-1.85;57.45;101563.38;2105452;28;20533;-65
2022/02/05 02:39:14;;;;;;;24.33;14.30;;;;;;;-1.85;58.55;101568.03;2105724;28;20183;-65
2022/02/05 02:40:40;;;;;;;23.77;15.82;;;;;;;-3.02;59.05;101377.06;2105930;28;20163;-65
2022/02/05 02:42:06;;;;;;;24.88;16.08;;;;;;;-1.83;57.93;101561.94;2105066;28;20159;-65
2022/02/05 02:43:07;;;;;;;23.02;14.70;;;;;;;-2.17;58.04;101511.63;2097182;28;20199;-65
2022/02/05 02:44:07;;;;;;;22.77;16.17;;;;;;;-1.80;57.82;101573.31;2097128;28;20245;-65
2022/02/05 02:45:08;;;;;;;25.40;16.17;;;;;;;-2.48;57.66;101465.75;2096915;28;20192;-65
2022/02/05 02:46:09;;;;;;;29.90;16.80;;;;;;;-1.78;58.04;101566.41;2097454;28;20559;-65
2022/02/05 02:47:10;;;;;;;23.40;13.80;;;;;;;-2.83;58.59;101409.22;2105274;28;20179;-65
2022/02/05 02:48:11;;;;;;;31.10;16.77;;;;;;;-2.06;57.90;101531.88;2105074;28;20179;-65
2022/02/05 02:49:16;;;;;;;25.87;17.13;;;;;;;-1.72;58.52;101567.81;2105209;28;20174;-65
2022/02/05 02:57:56;;;;;;;30.48;17.20;;;;;;;-2.03;57.96;101534.72;2105978;28;20558;-65
2022/02/05 02:59:06;;;;;;;36.97;17.23;;;;;;;-1.71;57.76;101579.50;2105637;28;20589;-65
2022/02/05 03:00:11;;;;;;;30.63;16.77;;;;;;;-1.71;57.68;101584.94;2105482;28;20190;-65
2022/02/05 03:01:17;;;;;;;26.63;16.15;;;;;;;-1.76;58.41;101575.03;2105733;28;20180;-65
2022/02/05 03:02:21;;;;;;;26.30;15.10;;;;;;;-1.74;58.41;101582.84;2105649;28;20159;-65
2022/02/05 03:03:22;;;;;;;23.25;15.20;;;;;;;-1.73;58.25;101576.28;2105580;28;20614;-65
2022/02/05 03:04:22;;;;;;;25.70;15.90;;;;;;;-1.73;57.96;101572.44;2106590;28;20179;-65
2022/02/05 03:05:24;;;;;;;28.03;17.03;;;;;;;-1.75;58.08;101575.84;2106743;28;20291;-65
2022/02/05 03:06:24;;;;;;;31.73;17.55;;;;;;;-1.76;58.56;101560.66;2107254;28;20167;-65
2022/02/05 03:07:26;;;;;;;28.07;17.07;;;;;;;-1.83;58.81;101563.06;2107244;28;20203;-65
2022/02/05 03:08:27;;;;;;;28.40;15.82;;;;;;;-1.84;58.63;101564.19;2107401;28;20164;-65
2022/02/05 03:09:27;;;;;;;25.33;15.73;;;;;;;-1.84;58.93;101564.19;2106673;28;20246;-65
2022/02/05 03:10:28;;;;;;;26.90;15.97;;;;;;;-1.83;58.51;101567.38;2107289;28;20175;-65
2022/02/05 03:11:28;;;;;;;32.17;16.87;;;;;;;-1.74;58.95;101572.00;2106735;28;20171;-65
2022/02/05 03:12:29;;;;;;;28.13;17.17;;;;;;;-1.70;58.88;101586.53;2107198;28;20178;-65
2022/02/05 03:13:30;;;;;;;26.42;16.90;;;;;;;-1.98;58.18;101531.81;2106100;28;20184;-65
2022/02/05 03:14:30;;;;;;;22.97;15.30;;;;;;;-1.66;57.74;101574.66;2106958;28;20183;-65
2022/02/05 03:15:42;;;;;;;28.93;15.53;;;;;;;-1.72;58.03;101565.09;2106567;28;20176;-65
2022/02/05 03:16:48;;;;;;;27.95;16.23;;;;;;;-1.76;57.89;101572.31;2106478;28;20261;-65
2022/02/05 03:18:29;;;;;;;24.38;15.07;;;;;;;-1.75;58.28;101571.19;2106335;28;20270;-65
2022/02/05 03:19:16;;;;;;;23.27;15.70;;;;;;;-1.84;57.91;101559.56;2103761;28;20194;-65
2022/02/05 03:20:17;;;;;;;23.27;15.63;;;;;;;-1.76;57.97;101569.59;2107233;28;20687;-65
2022/02/05 03:21:17;;;;;;;23.63;16.13;;;;;;;-2.33;58.26;101492.34;2106740;28;20562;-65
2022/02/05 03:22:20;;;;;;;27.77;16.73;;;;;;;-2.46;58.28;101484.44;2106848;28;20711;-65
2022/02/05 03:23:21;;;;;;;26.15;16.42;;;;;;;-2.20;58.04;101515.78;2107010;28;20224;-65
2022/02/05 03:24:21;;;;;;;27.40;16.70;;;;;;;-1.90;58.57;101571.72;2105628;28;20360;-65
2022/02/05 03:25:22;;;;;;;25.07;16.23;;;;;;;-1.92;58.94;101565.84;2105815;28;20725;-65
2022/02/05 03:26:22;;;;;;;24.60;16.37;;;;;;;-2.95;59.10;101399.03;2106407;28;20187;-65
2022/02/05 03:27:23;;;;;;;25.53;16.47;;;;;;;-1.89;59.48;101569.81;2106249;28;20171;-65
2022/02/05 03:28:23;;;;;;;23.90;16.10;;;;;;;-1.85;59.04;101568.03;2107204;28;20206;-65
2022/02/05 03:29:24;;;;;;;29.53;16.40;;;;;;;-1.85;59.03;101563.38;2107103;28;20182;-65
2022/02/05 03:30:25;;;;;;;27.40;16.80;;;;;;;-1.89;59.04;101578.78;2107037;28;20645;-65
2022/02/05 03:31:26;;;;;;;28.95;17.05;;;;;;;-2.01;59.24;101567.78;2106267;28;20179;-65
2022/02/05 03:32:26;;;;;;;29.47;16.73;;;;;;;-2.06;59.29;101542.72;2106606;28;20210;-65
2022/02/05 03:33:27;;;;;;;26.27;16.67;;;;;;;-2.35;58.99;101504.66;2106400;28;20171;-65
2022/02/05 03:34:28;;;;;;;29.23;17.70;;;;;;;-1.95;58.96;101555.59;2106114;28;20563;-65
2022/02/05 03:35:28;;;;;;;30.83;17.00;;;;;;;-1.93;58.63;101555.28;2106252;28;20194;-65
2022/02/05 03:36:29;;;;;;;26.23;16.80;;;;;;;-2.60;58.49;101457.50;2106875;28;20175;-65
2022/02/05 03:37:30;;;;;;;32.27;16.20;;;;;;;-2.02;58.87;101544.47;2106946;28;20163;-65
2022/02/05 03:38:30;;;;;;;28.60;16.40;;;;;;;-1.92;58.62;101554.16;2106885;28;20277;-65
2022/02/05 03:39:31;;;;;;;33.03;17.53;;;;;;;-1.92;58.82;101554.16;2106952;28;20818;-65
2022/02/05 03:40:32;;;;;;;28.80;18.00;;;;;;;-1.94;59.54;101561.84;2106550;28;20644;-65
2022/02/05 03:41:32;;;;;;;26.20;16.23;;;;;;;-2.42;58.95;101478.00;2106464;28;20172;-65
2022/02/05 03:42:34;;;;;;;26.80;17.53;;;;;;;-2.54;59.33;101461.63;2106992;28;20195;-65
2022/02/05 03:43:35;;;;;;;26.33;16.10;;;;;;;-1.88;59.39;101562.13;2106647;28;20168;-65
2022/02/05 03:44:35;;;;;;;28.23;16.57;;;;;;;-2.00;59.14;101561.22;2106372;28;20648;-65
2022/02/05 03:45:36;;;;;;;29.67;17.33;;;;;;;-1.87;58.94;101576.53;2106337;28;20619;-65
2022/02/05 03:46:36;;;;;;;29.57;16.97;;;;;;;-1.93;59.30;101556.09;2106873;28;20174;-65
2022/02/05 03:47:37;;;;;;;31.93;17.73;;;;;;;-2.37;59.11;101501.47;2106918;28;20179;-65
2022/02/05 03:48:38;;;;;;;30.23;17.57;;;;;;;-1.91;59.52;101567.41;2106113;28;20183;-65
2022/02/05 03:49:39;;;;;;;27.53;16.87;;;;;;;-1.94;59.38;101568.09;2106045;28;20186;-65
2022/02/05 03:50:39;;;;;;;26.27;17.17;;;;;;;-3.36;59.25;101346.50;2106971;28;20257;-65
2022/02/05 03:51:40;;;;;;;28.10;17.40;;;;;;;-2.51;59.63;101479.16;2106443;28;20214;-65
2022/02/05 03:52:42;;;;;;;29.63;18.50;;;;;;;-2.51;59.61;101487.31;2106816;28;20252;-65
2022/02/05 03:53:43;;;;;;;26.63;17.88;;;;;;;-2.10;59.86;101553.44;2106119;28;20222;-65
2022/02/05 03:54:45;;;;;;;26.30;17.27;;;;;;;-1.96;60.56;101574.97;2106776;28;20183;-65
2022/02/05 03:55:46;;;;;;;22.95;14.55;;;;;;;-1.95;60.74;101577.34;2106288;28;20219;-65
2022/02/05 03:56:48;;;;;;;26.70;16.67;;;;;;;-2.67;60.84;101456.41;2106019;28;20621;-65
2022/02/05 03:57:48;;;;;;;29.30;18.60;;;;;;;-2.06;60.57;101559.03;2106279;28;20177;-65
2022/02/05 03:58:49;;;;;;;25.23;16.70;;;;;;;-2.55;59.96;101483.66;2106447;28;20201;-65
2022/02/05 03:59:50;;;;;;;30.47;17.83;;;;;;;-1.86;59.94;101580.03;2106819;28;20180;-65
2022/02/05 04:00:50;;;;;;;32.10;17.55;;;;;;;-1.83;59.84;101582.91;2106823;28;20622;-65
2022/02/05 04:01:51;;;;;;;25.70;16.33;;;;;;;-1.83;59.37;101583.69;2106469;28;20267;-65
2022/02/05 04:02:51;;;;;;;27.17;16.30;;;;;;;-1.82;59.24;101584.50;2106356;28;20179;-65
2022/02/05 04:03:52;;;;;;;26.37;16.97;;;;;;;-1.80;58.99;101593.09;2106385;28;20229;-65
2022/02/05 04:04:53;;;;;;;27.83;16.03;;;;;;;-1.78;59.00;101587.34;2105575;28;20177;-65
2022/02/05 04:05:53;;;;;;;26.10;14.83;;;;;;;-2.48;58.12;101484.75;2105763;28;20246;-65
2022/02/05 04:06:54;;;;;;;24.10;15.20;;;;;;;-1.83;57.73;101588.34;2106341;28;20175;-65
2022/02/05 04:07:55;;;;;;;24.33;14.70;;;;;;;-1.88;57.78;101589.28;2106845;28;20171;-65
2022/02/05 04:08:59;;;;;;;23.95;14.98;;;;;;;-3.02;57.35;101423.16;2106749;28;20178;-65
2022/02/05 04:10:03;;;;;;;24.40;15.23;;;;;;;-1.90;57.74;101593.47;2106828;28;20194;-65
2022/02/05 04:11:26;;;;;;;22.50;14.65;;;;;;;-1.92;57.76;101598.44;2106705;28;20171;-65
2022/02/05 04:16:24;;;;;;;26.05;15.00;;;;;;;-2.08;57.94;101587.28;2109411;28;20178;-65
2022/02/05 04:17:24;;;;;;;22.93;14.27;;;;;;;-3.19;57.92;101419.66;2106651;28;20209;-65
2022/02/05 04:18:26;;;;;;;24.20;14.33;;;;;;;-2.17;58.43;101584.94;2106619;28;20171;-65
2022/02/05 04:19:26;;;;;;;27.05;15.80;;;;;;;-2.81;58.38;101485.63;2106634;28;20175;-65
2022/02/05 04:20:28;;;;;;;28.53;17.90;;;;;;;-3.02;58.24;101455.69;2106442;28;20642;-65
2022/02/05 04:21:29;;;;;;;30.02;17.85;;;;;;;-2.16;58.51;101594.69;2105561;28;20217;-65
2022/02/05 04:22:30;;;;;;;35.72;23.65;;;;;;;-2.47;60.46;101554.19;2106099;28;20171;-65
2022/02/05 04:23:32;;;;;;;36.20;23.57;;;;;;;-2.32;60.98;101577.31;2106427;28;20176;-65
2022/02/05 04:24:33;;;;;;;30.02;17.85;;;;;;;-2.18;60.50;101597.72;2105823;28;20728;-65
2022/02/05 04:25:34;;;;;;;33.17;21.23;;;;;;;-2.11;61.15;101597.22;2104973;28;20190;-65
2022/02/05 04:26:35;;;;;;;34.53;21.48;;;;;;;-2.10;61.93;101590.66;2108420;28;20170;-65
2022/02/05 04:27:35;;;;;;;31.37;19.77;;;;;;;-2.05;60.81;101595.94;2114823;28;20267;-65
2022/02/05 04:28:36;;;;;;;30.97;19.33;;;;;;;-2.73;60.19;101487.53;2115081;28;20236;-65
2022/02/05 04:29:37;;;;;;;33.63;20.97;;;;;;;-2.26;59.55;101557.78;2111523;28;20179;-65
2022/02/05 04:30:38;;;;;;;37.60;21.48;;;;;;;-2.17;59.43;101558.56;2106472;28;20186;-65
2022/02/05 04:31:39;;;;;;;43.33;21.60;;;;;;;-1.95;59.03;101590.13;2106247;28;20180;-65
2022/02/05 04:32:40;;;;;;;39.72;21.13;;;;;;;-2.15;58.56;101552.81;2106589;28;20180;-65
2022/02/05 04:33:40;;;;;;;34.60;22.07;;;;;;;-2.61;59.12;101476.81;2106233;28;20182;-65
2022/02/05 04:34:41;;;;;;;38.87;22.17;;;;;;;-1.90;58.51;101588.03;2106181;28;20175;-65
2022/02/05 04:35:44;;;;;;;33.90;20.73;;;;;;;-2.13;58.48;101561.44;2106044;28;20652;-65
2022/02/05 04:36:45;;;;;;;38.33;22.05;;;;;;;-2.39;58.32;101512.66;2106453;28;20428;-65
2022/02/05 04:37:49;;;;;;;40.03;20.70;;;;;;;-1.91;58.74;101591.09;2105970;28;20177;-65
2022/02/05 04:38:51;;;;;;;38.00;21.95;;;;;;;-1.91;59.08;101588.38;2106033;28;20195;-65
2022/02/05 04:40:06;;;;;;;37.42;20.85;;;;;;;-1.88;58.63;101586.56;2106531;28;20237;-65
2022/02/05 04:41:20;;;;;;;34.70;22.27;;;;;;;-2.49;58.82;101493.19;2106530;28;20617;-65
2022/02/05 04:42:28;;;;;;;44.75;21.75;;;;;;;-1.86;58.32;101586.25;2106556;28;20550;-65
2022/02/05 04:58:53;;;;;;;34.38;20.75;;;;;;;-2.05;58.55;101591.28;2106136;28;20167;-65
2022/02/05 05:00:57;;;;;;;35.83;21.65;;;;;;;-2.14;58.47;101592.44;2106089;28;20262;-65
2022/02/05 05:19:27;;;;;;;28.67;18.10;;;;;;;-2.58;58.06;101588.22;2096162;28;20199;-65
2022/02/05 05:20:27;;;;;;;32.75;19.35;;;;;;;-3.31;58.32;101489.97;2106332;28;20166;-65
2022/02/05 05:21:28;;;;;;;35.17;19.80;;;;;;;-2.77;58.30;101581.53;2105777;28;20179;-65
2022/02/05 05:22:28;;;;;;;31.97;19.63;;;;;;;-2.71;58.53;101594.63;2106143;28;20167;-65
2022/02/05 05:23:29;;;;;;;30.77;18.90;;;;;;;-2.72;58.83;101590.28;2105553;28;20179;-65
2022/02/05 05:24:30;;;;;;;39.13;20.90;;;;;;;-3.40;59.51;101481.03;2106021;28;20176;-65
2022/02/05 05:25:30;;;;;;;31.47;20.27;;;;;;;-2.66;58.79;101580.09;2105310;28;20187;-65
2022/02/05 05:26:31;;;;;;;31.17;20.47;;;;;;;-2.68;58.82;101587.75;2105484;28;20179;-65
2022/02/05 05:27:32;;;;;;;30.00;18.83;;;;;;;-2.67;59.10;101584.69;2105647;28;20171;-65
2022/02/05 05:28:32;;;;;;;35.25;19.77;;;;;;;-2.82;59.88;101566.19;2106105;28;20174;-65
2022/02/05 05:29:33;;;;;;;31.60;20.47;;;;;;;-2.97;60.84;101576.75;2105895;28;20175;-65
2022/02/05 05:30:33;;;;;;;28.43;19.17;;;;;;;-3.32;60.57;101527.13;2105953;28;20186;-65
2022/02/05 05:31:34;;;;;;;34.87;20.13;;;;;;;-2.86;60.92;101586.97;2105631;28;20956;-65
2022/02/05 05:32:35;;;;;;;28.33;19.03;;;;;;;-2.90;60.75;101594.13;2105772;28;20175;-65
2022/02/05 05:33:35;;;;;;;31.63;19.77;;;;;;;-3.04;61.09;101593.47;2105055;28;20329;-65
2022/02/05 05:34:36;;;;;;;27.97;17.53;;;;;;;-4.49;60.10;101361.44;2105502;28;20229;-65
2022/02/05 05:35:36;;;;;;;31.10;18.63;;;;;;;-3.93;60.53;101445.28;2105575;28;20611;-65
2022/02/05 05:36:37;;;;;;;29.67;18.87;;;;;;;-3.18;61.41;101583.91;2105026;28;20672;-65
2022/02/05 05:37:37;;;;;;;28.20;18.67;;;;;;;-3.10;61.58;101596.66;2105447;28;20187;-65
2022/02/05 05:38:38;;;;;;;32.83;18.47;;;;;;;-3.01;61.98;101582.00;2105277;28;20344;-65
2022/02/05 05:39:42;;;;;;;29.60;17.23;;;;;;;-3.29;61.24;101556.31;2105511;28;20232;-65
2022/02/05 05:40:43;;;;;;;27.05;18.48;;;;;;;-3.97;61.90;101461.38;2104946;28;20238;-65
2022/02/05 05:41:43;;;;;;;43.50;19.23;;;;;;;-3.65;61.50;101479.13;2104757;28;20707;-65
2022/02/05 05:42:49;;;;;;;35.83;18.80;;;;;;;-2.90;61.58;101588.72;2106043;28;20184;-65
2022/02/05 05:44:09;;;;;;;32.65;18.80;;;;;;;-2.82;60.83;101595.25;2105707;28;20219;-65
2022/02/05 05:45:36;;;;;;;30.83;17.63;;;;;;;-2.82;60.85;101587.13;2105510;28;20171;-65
2022/02/05 05:46:47;;;;;;;32.95;17.90;;;;;;;-2.91;61.09;101575.47;2097715;28;20167;-65
2022/02/05 05:50:03;;;;;;;32.67;17.40;;;;;;;-2.67;60.35;101595.56;2105824;28;20175;-65
2022/02/05 05:51:03;;;;;;;27.08;16.80;;;;;;;-2.69;60.45;101592.38;2097171;28;20163;-65
2022/02/05 05:52:04;;;;;;;28.03;17.67;;;;;;;-3.44;60.94;101471.97;2097436;28;20179;-65
2022/02/05 05:53:07;;;;;;;34.10;18.10;;;;;;;-2.71;60.58;101572.91;2097688;28;20553;-65
2022/02/05 05:54:08;;;;;;;24.45;16.00;;;;;;;-2.61;61.61;101594.28;2097183;28;20800;-65
2022/02/05 05:55:08;;;;;;;29.60;19.00;;;;;;;-2.62;61.29;101600.81;2102707;28;20213;-65
2022/02/05 05:56:09;;;;;;;38.63;18.03;;;;;;;-3.23;61.39;101498.09;2105413;28;20210;-65
2022/02/05 05:57:10;;;;;;;29.37;17.67;;;;;;;-2.69;61.32;101597.00;2105994;28;20235;-65
2022/02/05 05:58:13;;;;;;;30.25;18.20;;;;;;;-2.85;60.89;101606.72;2106062;28;20171;-65
2022/02/05 05:59:13;;;;;;;29.40;17.13;;;;;;;-3.74;60.03;101456.66;2105527;28;20175;-65
2022/02/05 06:00:14;;;;;;;31.80;17.53;;;;;;;-3.23;61.24;101560.44;2106008;28;20179;-65
2022/02/05 06:01:15;;;;;;;23.57;16.97;;;;;;;-3.30;61.01;101533.03;2105441;28;20694;-65
2022/02/05 06:02:15;;;;;;;32.10;18.10;;;;;;;-2.78;60.08;101605.13;2105763;28;20505;-65
2022/02/05 06:03:17;;;;;;;29.60;17.93;;;;;;;-2.75;61.30;101611.84;2113957;28;20182;-65
2022/02/05 06:04:18;;;;;;;26.80;17.42;;;;;;;-2.74;61.11;101616.13;2105348;28;20256;-65
2022/02/05 06:05:18;;;;;;;27.30;17.60;;;;;;;-2.71;60.62;101610.91;2105372;28;20730;-65
2022/02/05 06:06:19;;;;;;;24.13;16.87;;;;;;;-2.75;62.04;101614.56;2105939;28;20214;-65
2022/02/05 06:07:19;;;;;;;27.03;17.13;;;;;;;-2.68;61.52;101617.59;2105910;28;20166;-65
2022/02/05 06:08:20;;;;;;;24.77;14.90;;;;;;;-2.66;62.43;101608.03;2105773;28;20229;-65
2022/02/05 06:09:21;;;;;;;25.93;16.57;;;;;;;-2.64;62.33;101618.53;2105272;28;20228;-65
2022/02/05 06:10:21;;;;;;;25.07;16.47;;;;;;;-2.63;62.24;101618.22;2105382;28;20171;-65
2022/02/05 06:11:22;;;;;;;25.80;16.90;;;;;;;-3.21;61.63;101538.44;2105395;28;20585;-65
2022/02/05 06:12:22;;;;;;;30.57;18.03;;;;;;;-3.39;61.26;101507.81;2105347;28;20176;-65
2022/02/05 06:13:23;;;;;;;30.27;17.70;;;;;;;-2.59;61.37;101635.47;2106006;28;20171;-65
2022/02/05 06:14:26;;;;;;;28.27;17.53;;;;;;;-2.58;61.20;101645.19;2106117;28;20215;-66
2022/02/05 06:15:27;;;;;;;38.65;19.38;;;;;;;-3.05;60.84;101566.69;2113698;28;20177;-65
2022/02/05 06:16:31;;;;;;;35.73;19.43;;;;;;;-2.52;61.27;101635.75;2114373;28;20190;-65
2022/02/05 06:17:32;;;;;;;30.75;20.23;;;;;;;-2.53;60.97;101642.31;2107164;28;20182;-65
2022/02/05 06:18:33;;;;;;;44.70;30.33;;;;;;;-2.40;61.83;101637.84;2105135;28;20207;-65
2022/02/05 06:19:35;;;;;;;47.27;30.00;;;;;;;-2.48;61.71;101616.91;2105251;28;20620;-65
2022/02/05 06:20:37;;;;;;;59.42;38.83;;;;;;;-2.25;62.42;101643.59;2105897;28;20179;-65
2022/02/05 06:21:37;;;;;;;55.38;38.90;;;;;;;-2.26;62.31;101636.53;2105336;28;20232;-65
2022/02/05 06:22:38;;;;;;;56.03;38.60;;;;;;;-2.20;62.82;101637.19;2105231;28;20175;-65
2022/02/05 06:23:39;;;;;;;64.03;43.70;;;;;;;-2.02;63.12;101639.53;2105584;28;20186;-65
2022/02/05 06:24:39;;;;;;;65.73;43.23;;;;;;;-1.93;63.20;101642.22;2105874;28;20254;-65
2022/02/05 06:25:41;;;;;;;52.23;35.07;;;;;;;-1.86;62.29;101639.81;2105216;28;20270;-65
2022/02/05 06:26:42;;;;;;;61.97;40.53;;;;;;;-2.47;62.16;101547.97;2105474;28;20241;-65
2022/02/05 06:27:43;;;;;;;46.63;32.00;;;;;;;-2.51;62.02;101525.31;2105874;28;20187;-65
2022/02/05 06:28:43;;;;;;;43.47;29.33;;;;;;;-2.31;61.47;101546.34;2105845;28;20185;-65
2022/02/05 06:29:44;;;;;;;81.63;49.13;;;;;;;-1.79;62.01;101613.72;2105867;28;20196;-65
2022/02/05 06:30:45;;;;;;;83.97;52.20;;;;;;;-2.04;62.28;101557.59;2105513;28;20613;-65
2022/02/05 06:31:46;;;;;;;79.18;48.35;;;;;;;-1.43;62.05;101634.97;2105508;28;20184;-66
2022/02/05 06:32:46;;;;;;;67.33;41.70;;;;;;;-2.22;61.26;101496.31;2105338;28;20646;-65
2022/02/05 06:33:48;;;;;;;55.90;37.47;;;;;;;-1.45;60.50;101612.78;2105341;28;20191;-66
2022/02/05 06:34:49;;;;;;;68.60;42.47;;;;;;;-1.26;60.85;101631.03;2104936;28;20181;-65
2022/02/05 06:35:49;;;;;;;54.27;34.63;;;;;;;-1.19;60.36;101633.25;2105656;28;20270;-65
2022/02/05 06:36:50;;;;;;;70.97;44.90;;;;;;;-1.42;60.02;101599.31;2105227;28;20181;-65
2022/02/05 06:37:50;;;;;;;79.03;47.03;;;;;;;-1.06;60.35;101633.00;2106340;28;20180;-65
2022/02/05 06:38:51;;;;;;;72.03;45.87;;;;;;;-1.43;60.23;101561.59;2111755;28;20266;-66
2022/02/05 06:39:51;;;;;;;73.30;46.20;;;;;;;-0.96;60.40;101635.31;2109436;28;20189;-65
2022/02/05 06:40:53;;;;;;;74.47;45.33;;;;;;;-0.93;60.06;101642.03;2107323;28;20184;-65
2022/02/05 06:41:54;;;;;;;72.55;44.80;;;;;;;-1.28;60.12;101569.16;2107026;28;20173;-65
2022/02/05 06:42:55;;;;;;;68.90;44.00;;;;;;;-1.50;60.01;101539.56;2107192;28;20179;-65
2022/02/05 06:43:55;;;;;;;60.50;37.27;;;;;;;-0.87;60.10;101616.25;2106401;28;20206;-65
2022/02/05 06:44:56;;;;;;;68.70;42.60;;;;;;;-0.72;59.71;101635.47;2106766;28;20180;-65
2022/02/05 06:45:56;;;;;;;64.23;41.73;;;;;;;-0.68;59.32;101630.97;2107355;28;20216;-65
2022/02/05 06:46:57;;;;;;;62.17;38.20;;;;;;;-1.28;59.28;101537.34;2107350;28;20188;-65